sensor_id;sensor_type;location;lat;lon;timestamp;temperature;humidity
33988;DHT22;37428;53.580;-1.666;2022-12-29T00:01:35;7.30;90.20
33988;DHT22;37428;53.580;-1.666;2022-12-29T00:04:37;7.30;91.00
33988;DHT22;37428;53.580;-1.666;2022-12-29T00:07:39;7.30;92.00
33988;DHT22;37428;53.580;-1.666;2022-12-29T00:10:41;7.20;92.70
33988;DHT22;37428;53.580;-1.666;2022-12-29T00:13:43;7.10;92.90
33988;DHT22;37428;53.580;-1.666;2022-12-29T00:17:05;7.10;92.30
33988;DHT22;37428;53.580;-1.666;2022-12-29T00:20:09;7.10;91.50
33988;DHT22;37428;53.580;-1.666;2022-12-29T00:23:46;7.10;90.90
33988;DHT22;37428;53.580;-1.666;2022-12-29T00:27:11;7.10;90.10
33988;DHT22;37428;53.580;-1.666;2022-12-29T00:30:30;7.20;89.70
33988;DHT22;37428;53.580;-1.666;2022-12-29T00:33:51;7.20;90.40
33988;DHT22;37428;53.580;-1.666;2022-12-29T00:37:20;7.20;91.10
33988;DHT22;37428;53.580;-1.666;2022-12-29T00:40:43;7.10;92.40
33988;DHT22;37428;53.580;-1.666;2022-12-29T00:43:58;7.10;93.40
33988;DHT22;37428;53.580;-1.666;2022-12-29T00:47:06;7.10;93.60
33988;DHT22;37428;53.580;-1.666;2022-12-29T00:50:10;7.10;93.70
33988;DHT22;37428;53.580;-1.666;2022-12-29T00:53:12;7.10;93.90
33988;DHT22;37428;53.580;-1.666;2022-12-29T00:56:14;7.00;94.10
33988;DHT22;37428;53.580;-1.666;2022-12-29T00:59:40;7.10;94.20
33988;DHT22;37428;53.580;-1.666;2022-12-29T01:02:42;7.10;94.30
33988;DHT22;37428;53.580;-1.666;2022-12-29T01:05:53;7.10;94.20
33988;DHT22;37428;53.580;-1.666;2022-12-29T01:08:57;7.00;94.40
33988;DHT22;37428;53.580;-1.666;2022-12-29T01:12:22;7.00;94.40
33988;DHT22;37428;53.580;-1.666;2022-12-29T01:15:40;7.00;94.70
33988;DHT22;37428;53.580;-1.666;2022-12-29T01:18:42;7.00;94.80
33988;DHT22;37428;53.580;-1.666;2022-12-29T01:21:45;7.00;94.90
33988;DHT22;37428;53.580;-1.666;2022-12-29T01:24:47;6.90;94.30
33988;DHT22;37428;53.580;-1.666;2022-12-29T01:27:50;6.70;91.50
33988;DHT22;37428;53.580;-1.666;2022-12-29T01:30:52;6.40;91.50
33988;DHT22;37428;53.580;-1.666;2022-12-29T01:33:55;6.20;92.50
33988;DHT22;37428;53.580;-1.666;2022-12-29T01:36:58;6.10;93.30
33988;DHT22;37428;53.580;-1.666;2022-12-29T01:40:00;6.00;94.00
33988;DHT22;37428;53.580;-1.666;2022-12-29T01:43:03;6.00;94.10
33988;DHT22;37428;53.580;-1.666;2022-12-29T01:46:14;6.00;93.70
33988;DHT22;37428;53.580;-1.666;2022-12-29T01:49:19;5.90;93.10
33988;DHT22;37428;53.580;-1.666;2022-12-29T01:52:28;5.90;93.60
33988;DHT22;37428;53.580;-1.666;2022-12-29T01:55:36;5.80;92.70
33988;DHT22;37428;53.580;-1.666;2022-12-29T01:58:41;5.70;92.90
33988;DHT22;37428;53.580;-1.666;2022-12-29T02:01:46;5.60;93.10
33988;DHT22;37428;53.580;-1.666;2022-12-29T02:04:48;5.60;92.90
33988;DHT22;37428;53.580;-1.666;2022-12-29T02:07:54;5.60;92.70
33988;DHT22;37428;53.580;-1.666;2022-12-29T02:10:57;5.50;92.70
33988;DHT22;37428;53.580;-1.666;2022-12-29T02:14:00;5.50;92.50
33988;DHT22;37428;53.580;-1.666;2022-12-29T02:17:08;5.50;93.00
33988;DHT22;37428;53.580;-1.666;2022-12-29T02:20:44;5.50;93.40
33988;DHT22;37428;53.580;-1.666;2022-12-29T02:24:18;5.50;93.20
33988;DHT22;37428;53.580;-1.666;2022-12-29T02:27:52;5.60;92.90
33988;DHT22;37428;53.580;-1.666;2022-12-29T02:31:06;5.60;93.30
33988;DHT22;37428;53.580;-1.666;2022-12-29T02:34:23;5.60;93.30
33988;DHT22;37428;53.580;-1.666;2022-12-29T02:37:33;5.60;93.80
33988;DHT22;37428;53.580;-1.666;2022-12-29T02:40:40;5.70;93.90
33988;DHT22;37428;53.580;-1.666;2022-12-29T02:43:49;5.70;93.90
33988;DHT22;37428;53.580;-1.666;2022-12-29T02:46:56;5.70;94.20
33988;DHT22;37428;53.580;-1.666;2022-12-29T02:50:05;5.80;95.00
33988;DHT22;37428;53.580;-1.666;2022-12-29T02:53:11;5.80;95.70
33988;DHT22;37428;53.580;-1.666;2022-12-29T02:56:14;5.80;95.40
33988;DHT22;37428;53.580;-1.666;2022-12-29T02:59:16;5.80;95.20
33988;DHT22;37428;53.580;-1.666;2022-12-29T03:02:34;5.80;94.80
33988;DHT22;37428;53.580;-1.666;2022-12-29T03:05:58;5.90;94.80
33988;DHT22;37428;53.580;-1.666;2022-12-29T03:09:11;5.90;95.00
33988;DHT22;37428;53.580;-1.666;2022-12-29T03:12:30;5.90;95.50
33988;DHT22;37428;53.580;-1.666;2022-12-29T03:15:58;5.90;95.50
33988;DHT22;37428;53.580;-1.666;2022-12-29T03:19:10;6.00;95.60
33988;DHT22;37428;53.580;-1.666;2022-12-29T03:22:19;6.00;95.50
33988;DHT22;37428;53.580;-1.666;2022-12-29T03:25:33;5.90;95.90
33988;DHT22;37428;53.580;-1.666;2022-12-29T03:28:39;6.00;96.00
33988;DHT22;37428;53.580;-1.666;2022-12-29T03:31:44;6.00;96.60
33988;DHT22;37428;53.580;-1.666;2022-12-29T03:34:49;5.90;95.80
33988;DHT22;37428;53.580;-1.666;2022-12-29T03:37:59;5.90;95.00
33988;DHT22;37428;53.580;-1.666;2022-12-29T03:41:05;5.90;95.20
33988;DHT22;37428;53.580;-1.666;2022-12-29T03:44:09;5.90;95.10
33988;DHT22;37428;53.580;-1.666;2022-12-29T03:47:12;5.90;95.10
33988;DHT22;37428;53.580;-1.666;2022-12-29T03:50:16;5.90;95.10
33988;DHT22;37428;53.580;-1.666;2022-12-29T03:53:18;5.80;95.20
33988;DHT22;37428;53.580;-1.666;2022-12-29T03:56:20;5.80;95.60
33988;DHT22;37428;53.580;-1.666;2022-12-29T03:59:23;5.90;96.40
33988;DHT22;37428;53.580;-1.666;2022-12-29T04:02:25;5.90;95.90
33988;DHT22;37428;53.580;-1.666;2022-12-29T04:05:28;5.90;96.20
33988;DHT22;37428;53.580;-1.666;2022-12-29T04:08:31;5.90;96.20
33988;DHT22;37428;53.580;-1.666;2022-12-29T04:11:33;5.90;96.30
33988;DHT22;37428;53.580;-1.666;2022-12-29T04:14:35;6.00;96.50
33988;DHT22;37428;53.580;-1.666;2022-12-29T04:17:37;6.00;96.70
33988;DHT22;37428;53.580;-1.666;2022-12-29T04:20:41;6.00;96.50
33988;DHT22;37428;53.580;-1.666;2022-12-29T04:24:04;6.00;96.70
33988;DHT22;37428;53.580;-1.666;2022-12-29T04:27:07;6.00;96.20
33988;DHT22;37428;53.580;-1.666;2022-12-29T04:30:10;6.00;95.80
33988;DHT22;37428;53.580;-1.666;2022-12-29T04:33:13;6.00;95.70
33988;DHT22;37428;53.580;-1.666;2022-12-29T04:36:16;6.00;95.00
33988;DHT22;37428;53.580;-1.666;2022-12-29T04:39:18;6.00;94.90
33988;DHT22;37428;53.580;-1.666;2022-12-29T04:42:20;6.00;95.20
33988;DHT22;37428;53.580;-1.666;2022-12-29T04:45:22;6.00;95.40
33988;DHT22;37428;53.580;-1.666;2022-12-29T04:48:24;5.90;96.00
33988;DHT22;37428;53.580;-1.666;2022-12-29T04:51:28;5.90;96.50
33988;DHT22;37428;53.580;-1.666;2022-12-29T04:54:30;5.90;97.00
33988;DHT22;37428;53.580;-1.666;2022-12-29T04:57:32;5.90;96.70
33988;DHT22;37428;53.580;-1.666;2022-12-29T05:00:34;5.90;96.90
33988;DHT22;37428;53.580;-1.666;2022-12-29T05:03:36;5.90;96.40
33988;DHT22;37428;53.580;-1.666;2022-12-29T05:06:40;5.90;96.50
33988;DHT22;37428;53.580;-1.666;2022-12-29T05:09:42;5.90;96.10
33988;DHT22;37428;53.580;-1.666;2022-12-29T05:12:44;5.90;95.60
33988;DHT22;37428;53.580;-1.666;2022-12-29T05:15:49;6.00;95.50
33988;DHT22;37428;53.580;-1.666;2022-12-29T05:18:51;6.00;95.30
33988;DHT22;37428;53.580;-1.666;2022-12-29T05:21:54;6.00;94.80
33988;DHT22;37428;53.580;-1.666;2022-12-29T05:24:56;6.00;94.80
33988;DHT22;37428;53.580;-1.666;2022-12-29T05:27:59;6.00;94.60
33988;DHT22;37428;53.580;-1.666;2022-12-29T05:31:01;6.00;94.30
33988;DHT22;37428;53.580;-1.666;2022-12-29T05:34:03;6.00;94.00
33988;DHT22;37428;53.580;-1.666;2022-12-29T05:37:06;5.90;94.20
33988;DHT22;37428;53.580;-1.666;2022-12-29T05:40:09;6.00;94.40
33988;DHT22;37428;53.580;-1.666;2022-12-29T05:43:11;5.90;94.00
33988;DHT22;37428;53.580;-1.666;2022-12-29T05:46:13;5.90;93.60
33988;DHT22;37428;53.580;-1.666;2022-12-29T05:49:16;5.90;93.80
33988;DHT22;37428;53.580;-1.666;2022-12-29T05:52:19;5.90;93.50
33988;DHT22;37428;53.580;-1.666;2022-12-29T05:55:21;5.90;93.60
33988;DHT22;37428;53.580;-1.666;2022-12-29T05:58:23;5.90;94.00
33988;DHT22;37428;53.580;-1.666;2022-12-29T06:01:25;5.80;93.70
33988;DHT22;37428;53.580;-1.666;2022-12-29T06:04:27;5.80;93.40
33988;DHT22;37428;53.580;-1.666;2022-12-29T06:07:31;5.80;93.80
33988;DHT22;37428;53.580;-1.666;2022-12-29T06:10:33;5.80;93.60
33988;DHT22;37428;53.580;-1.666;2022-12-29T06:13:35;5.80;93.00
33988;DHT22;37428;53.580;-1.666;2022-12-29T06:16:37;5.80;92.80
33988;DHT22;37428;53.580;-1.666;2022-12-29T06:19:39;5.80;92.80
33988;DHT22;37428;53.580;-1.666;2022-12-29T06:22:42;5.80;92.80
33988;DHT22;37428;53.580;-1.666;2022-12-29T06:25:47;5.70;93.40
33988;DHT22;37428;53.580;-1.666;2022-12-29T06:28:49;5.70;93.00
33988;DHT22;37428;53.580;-1.666;2022-12-29T06:31:52;5.70;93.10
33988;DHT22;37428;53.580;-1.666;2022-12-29T06:34:56;5.70;93.00
33988;DHT22;37428;53.580;-1.666;2022-12-29T06:38:00;5.70;93.00
33988;DHT22;37428;53.580;-1.666;2022-12-29T06:41:02;5.60;93.20
33988;DHT22;37428;53.580;-1.666;2022-12-29T06:44:04;5.60;93.30
33988;DHT22;37428;53.580;-1.666;2022-12-29T06:47:06;5.60;93.50
33988;DHT22;37428;53.580;-1.666;2022-12-29T06:50:09;5.60;93.80
33988;DHT22;37428;53.580;-1.666;2022-12-29T06:53:12;5.50;92.80
33988;DHT22;37428;53.580;-1.666;2022-12-29T06:56:14;5.50;92.40
33988;DHT22;37428;53.580;-1.666;2022-12-29T06:59:16;5.50;92.50
33988;DHT22;37428;53.580;-1.666;2022-12-29T07:02:18;5.50;92.80
33988;DHT22;37428;53.580;-1.666;2022-12-29T07:05:21;5.50;92.50
33988;DHT22;37428;53.580;-1.666;2022-12-29T07:08:27;5.60;92.00
33988;DHT22;37428;53.580;-1.666;2022-12-29T07:11:29;5.50;91.70
33988;DHT22;37428;53.580;-1.666;2022-12-29T07:14:31;5.50;91.30
33988;DHT22;37428;53.580;-1.666;2022-12-29T07:17:33;5.60;91.50
33988;DHT22;37428;53.580;-1.666;2022-12-29T07:20:35;5.60;92.40
33988;DHT22;37428;53.580;-1.666;2022-12-29T07:23:39;5.50;92.60
33988;DHT22;37428;53.580;-1.666;2022-12-29T07:26:41;5.50;93.00
33988;DHT22;37428;53.580;-1.666;2022-12-29T07:29:43;5.50;93.10
33988;DHT22;37428;53.580;-1.666;2022-12-29T07:32:45;5.40;93.00
33988;DHT22;37428;53.580;-1.666;2022-12-29T07:35:47;5.40;92.60
33988;DHT22;37428;53.580;-1.666;2022-12-29T07:38:51;5.40;91.80
33988;DHT22;37428;53.580;-1.666;2022-12-29T07:41:53;5.40;91.60
33988;DHT22;37428;53.580;-1.666;2022-12-29T07:44:55;5.40;92.20
33988;DHT22;37428;53.580;-1.666;2022-12-29T07:47:57;5.40;92.60
33988;DHT22;37428;53.580;-1.666;2022-12-29T07:50:59;5.40;92.40
33988;DHT22;37428;53.580;-1.666;2022-12-29T07:54:03;5.40;90.90
33988;DHT22;37428;53.580;-1.666;2022-12-29T07:57:06;5.40;91.10
33988;DHT22;37428;53.580;-1.666;2022-12-29T08:00:09;5.30;91.80
33988;DHT22;37428;53.580;-1.666;2022-12-29T08:03:11;5.40;92.20
33988;DHT22;37428;53.580;-1.666;2022-12-29T08:06:13;5.40;91.90
33988;DHT22;37428;53.580;-1.666;2022-12-29T08:09:17;5.50;92.00
33988;DHT22;37428;53.580;-1.666;2022-12-29T08:12:19;5.50;91.00
33988;DHT22;37428;53.580;-1.666;2022-12-29T08:15:21;5.50;89.50
33988;DHT22;37428;53.580;-1.666;2022-12-29T08:18:23;5.50;88.00
33988;DHT22;37428;53.580;-1.666;2022-12-29T08:21:27;5.50;88.00
33988;DHT22;37428;53.580;-1.666;2022-12-29T08:24:31;5.40;90.00
33988;DHT22;37428;53.580;-1.666;2022-12-29T08:27:33;5.40;90.80
33988;DHT22;37428;53.580;-1.666;2022-12-29T08:30:35;5.40;89.50
33988;DHT22;37428;53.580;-1.666;2022-12-29T08:33:38;5.50;88.80
33988;DHT22;37428;53.580;-1.666;2022-12-29T08:36:40;5.50;88.40
33988;DHT22;37428;53.580;-1.666;2022-12-29T08:39:43;5.50;86.30
33988;DHT22;37428;53.580;-1.666;2022-12-29T08:42:45;5.50;86.40
33988;DHT22;37428;53.580;-1.666;2022-12-29T08:45:47;5.50;87.40
33988;DHT22;37428;53.580;-1.666;2022-12-29T08:48:49;5.50;86.60
33988;DHT22;37428;53.580;-1.666;2022-12-29T08:51:52;5.50;86.70
33988;DHT22;37428;53.580;-1.666;2022-12-29T08:54:55;5.50;86.30
33988;DHT22;37428;53.580;-1.666;2022-12-29T08:57:57;5.50;85.90
33988;DHT22;37428;53.580;-1.666;2022-12-29T09:00:59;5.50;85.60
33988;DHT22;37428;53.580;-1.666;2022-12-29T09:04:02;5.50;85.20
33988;DHT22;37428;53.580;-1.666;2022-12-29T09:07:04;5.50;85.60
33988;DHT22;37428;53.580;-1.666;2022-12-29T09:10:08;5.50;86.70
33988;DHT22;37428;53.580;-1.666;2022-12-29T09:13:11;5.50;87.50
33988;DHT22;37428;53.580;-1.666;2022-12-29T09:16:13;5.50;87.30
33988;DHT22;37428;53.580;-1.666;2022-12-29T09:19:16;5.50;87.40
33988;DHT22;37428;53.580;-1.666;2022-12-29T09:22:19;5.50;86.60
33988;DHT22;37428;53.580;-1.666;2022-12-29T09:25:23;5.50;87.30
33988;DHT22;37428;53.580;-1.666;2022-12-29T09:28:25;5.50;87.50
33988;DHT22;37428;53.580;-1.666;2022-12-29T09:31:29;5.50;87.80
33988;DHT22;37428;53.580;-1.666;2022-12-29T09:34:31;5.50;87.80
33988;DHT22;37428;53.580;-1.666;2022-12-29T09:37:33;5.50;88.30
33988;DHT22;37428;53.580;-1.666;2022-12-29T09:40:37;5.50;88.60
33988;DHT22;37428;53.580;-1.666;2022-12-29T09:43:51;5.50;88.60
33988;DHT22;37428;53.580;-1.666;2022-12-29T09:46:55;5.50;88.50
33988;DHT22;37428;53.580;-1.666;2022-12-29T09:50:02;5.50;88.10
33988;DHT22;37428;53.580;-1.666;2022-12-29T09:53:09;5.50;87.90
33988;DHT22;37428;53.580;-1.666;2022-12-29T09:56:19;5.50;87.40
33988;DHT22;37428;53.580;-1.666;2022-12-29T09:59:26;5.40;86.80
33988;DHT22;37428;53.580;-1.666;2022-12-29T10:02:36;5.40;86.30
33988;DHT22;37428;53.580;-1.666;2022-12-29T10:05:46;5.50;86.00
33988;DHT22;37428;53.580;-1.666;2022-12-29T10:08:56;5.50;85.50
33988;DHT22;37428;53.580;-1.666;2022-12-29T10:12:11;5.50;85.80
33988;DHT22;37428;53.580;-1.666;2022-12-29T10:15:32;5.70;84.80
33988;DHT22;37428;53.580;-1.666;2022-12-29T10:22:21;5.90;82.60
33988;DHT22;37428;53.580;-1.666;2022-12-29T10:25:26;5.90;81.70
33988;DHT22;37428;53.580;-1.666;2022-12-29T10:28:40;6.00;81.10
33988;DHT22;37428;53.580;-1.666;2022-12-29T10:31:47;6.00;81.10
33988;DHT22;37428;53.580;-1.666;2022-12-29T10:34:52;6.00;81.10
33988;DHT22;37428;53.580;-1.666;2022-12-29T10:37:59;6.10;80.50
33988;DHT22;37428;53.580;-1.666;2022-12-29T10:41:08;6.10;80.50
33988;DHT22;37428;53.580;-1.666;2022-12-29T10:44:15;6.20;80.40
33988;DHT22;37428;53.580;-1.666;2022-12-29T10:47:21;6.20;79.70
33988;DHT22;37428;53.580;-1.666;2022-12-29T10:50:24;6.30;79.80
33988;DHT22;37428;53.580;-1.666;2022-12-29T10:53:30;6.30;79.40
33988;DHT22;37428;53.580;-1.666;2022-12-29T10:56:38;6.20;80.10
33988;DHT22;37428;53.580;-1.666;2022-12-29T10:59:44;6.20;80.30
33988;DHT22;37428;53.580;-1.666;2022-12-29T11:02:57;6.10;80.20
33988;DHT22;37428;53.580;-1.666;2022-12-29T11:06:23;6.10;80.20
33988;DHT22;37428;53.580;-1.666;2022-12-29T11:09:28;6.10;79.90
33988;DHT22;37428;53.580;-1.666;2022-12-29T11:12:43;6.10;80.50
33988;DHT22;37428;53.580;-1.666;2022-12-29T11:15:59;6.00;80.10
33988;DHT22;37428;53.580;-1.666;2022-12-29T11:19:03;6.00;80.50
33988;DHT22;37428;53.580;-1.666;2022-12-29T11:22:12;5.90;80.50
33988;DHT22;37428;53.580;-1.666;2022-12-29T11:25:14;6.00;80.40
33988;DHT22;37428;53.580;-1.666;2022-12-29T11:28:16;5.90;80.30
33988;DHT22;37428;53.580;-1.666;2022-12-29T11:31:21;5.90;81.00
33988;DHT22;37428;53.580;-1.666;2022-12-29T11:34:25;5.90;80.40
33988;DHT22;37428;53.580;-1.666;2022-12-29T11:37:37;5.90;80.10
33988;DHT22;37428;53.580;-1.666;2022-12-29T11:40:40;5.90;80.40
33988;DHT22;37428;53.580;-1.666;2022-12-29T11:43:44;5.90;80.40
33988;DHT22;37428;53.580;-1.666;2022-12-29T11:46:51;5.90;80.70
33988;DHT22;37428;53.580;-1.666;2022-12-29T11:49:55;5.90;80.60
33988;DHT22;37428;53.580;-1.666;2022-12-29T11:53:00;6.00;79.70
33988;DHT22;37428;53.580;-1.666;2022-12-29T11:56:05;6.00;79.90
33988;DHT22;37428;53.580;-1.666;2022-12-29T11:59:34;6.00;79.50
33988;DHT22;37428;53.580;-1.666;2022-12-29T12:02:50;6.10;79.80
33988;DHT22;37428;53.580;-1.666;2022-12-29T12:05:57;6.10;79.70
33988;DHT22;37428;53.580;-1.666;2022-12-29T12:09:02;6.10;79.20
33988;DHT22;37428;53.580;-1.666;2022-12-29T12:12:15;6.10;79.20
33988;DHT22;37428;53.580;-1.666;2022-12-29T12:15:24;6.10;79.50
33988;DHT22;37428;53.580;-1.666;2022-12-29T12:18:50;6.10;79.00
33988;DHT22;37428;53.580;-1.666;2022-12-29T12:21:58;6.20;79.60
33988;DHT22;37428;53.580;-1.666;2022-12-29T12:25:09;6.20;79.30
33988;DHT22;37428;53.580;-1.666;2022-12-29T12:28:17;6.20;78.60
33988;DHT22;37428;53.580;-1.666;2022-12-29T12:31:35;6.20;78.40
33988;DHT22;37428;53.580;-1.666;2022-12-29T12:34:44;6.30;76.90
33988;DHT22;37428;53.580;-1.666;2022-12-29T12:38:03;6.30;77.20
33988;DHT22;37428;53.580;-1.666;2022-12-29T12:41:12;6.30;77.90
33988;DHT22;37428;53.580;-1.666;2022-12-29T12:44:20;6.30;77.90
33988;DHT22;37428;53.580;-1.666;2022-12-29T12:47:41;6.40;78.40
33988;DHT22;37428;53.580;-1.666;2022-12-29T12:50:55;6.40;77.70
33988;DHT22;37428;53.580;-1.666;2022-12-29T12:54:10;6.50;77.50
33988;DHT22;37428;53.580;-1.666;2022-12-29T12:57:20;6.50;77.10
33988;DHT22;37428;53.580;-1.666;2022-12-29T13:00:25;6.50;77.00
33988;DHT22;37428;53.580;-1.666;2022-12-29T13:03:43;6.50;77.70
33988;DHT22;37428;53.580;-1.666;2022-12-29T13:06:53;6.50;77.90
33988;DHT22;37428;53.580;-1.666;2022-12-29T13:10:19;6.50;77.10
33988;DHT22;37428;53.580;-1.666;2022-12-29T13:13:43;6.60;76.30
33988;DHT22;37428;53.580;-1.666;2022-12-29T13:16:53;6.60;77.00
33988;DHT22;37428;53.580;-1.666;2022-12-29T13:20:01;6.60;76.10
33988;DHT22;37428;53.580;-1.666;2022-12-29T13:23:16;6.60;75.40
33988;DHT22;37428;53.580;-1.666;2022-12-29T13:26:25;6.60;75.40
33988;DHT22;37428;53.580;-1.666;2022-12-29T13:29:35;6.70;75.60
33988;DHT22;37428;53.580;-1.666;2022-12-29T13:32:49;6.60;74.90
33988;DHT22;37428;53.580;-1.666;2022-12-29T13:35:57;6.60;75.10
33988;DHT22;37428;53.580;-1.666;2022-12-29T13:39:08;6.60;74.80
33988;DHT22;37428;53.580;-1.666;2022-12-29T13:42:12;6.50;75.70
33988;DHT22;37428;53.580;-1.666;2022-12-29T13:45:17;6.50;74.90
33988;DHT22;37428;53.580;-1.666;2022-12-29T13:48:23;6.40;74.90
33988;DHT22;37428;53.580;-1.666;2022-12-29T13:51:29;6.30;74.70
33988;DHT22;37428;53.580;-1.666;2022-12-29T13:54:41;6.40;75.10
33988;DHT22;37428;53.580;-1.666;2022-12-29T13:57:45;6.40;75.20
33988;DHT22;37428;53.580;-1.666;2022-12-29T14:00:56;6.40;75.30
33988;DHT22;37428;53.580;-1.666;2022-12-29T14:04:03;6.40;74.90
33988;DHT22;37428;53.580;-1.666;2022-12-29T14:07:15;6.40;74.50
33988;DHT22;37428;53.580;-1.666;2022-12-29T14:10:29;6.40;74.20
33988;DHT22;37428;53.580;-1.666;2022-12-29T14:13:38;6.40;73.60
33988;DHT22;37428;53.580;-1.666;2022-12-29T14:16:41;6.40;74.50
33988;DHT22;37428;53.580;-1.666;2022-12-29T14:19:45;6.40;75.30
33988;DHT22;37428;53.580;-1.666;2022-12-29T14:22:59;6.30;74.70
33988;DHT22;37428;53.580;-1.666;2022-12-29T14:26:18;6.30;72.40
33988;DHT22;37428;53.580;-1.666;2022-12-29T14:29:44;6.30;72.50
33988;DHT22;37428;53.580;-1.666;2022-12-29T14:33:00;6.20;73.80
33988;DHT22;37428;53.580;-1.666;2022-12-29T14:36:33;6.20;73.80
33988;DHT22;37428;53.580;-1.666;2022-12-29T14:39:37;6.10;74.10
33988;DHT22;37428;53.580;-1.666;2022-12-29T14:42:41;6.10;74.20
33988;DHT22;37428;53.580;-1.666;2022-12-29T14:45:53;6.00;74.60
33988;DHT22;37428;53.580;-1.666;2022-12-29T14:48:57;6.00;74.80
33988;DHT22;37428;53.580;-1.666;2022-12-29T14:52:07;6.00;75.20
33988;DHT22;37428;53.580;-1.666;2022-12-29T14:55:36;6.00;75.40
33988;DHT22;37428;53.580;-1.666;2022-12-29T14:58:46;6.00;75.60
33988;DHT22;37428;53.580;-1.666;2022-12-29T15:01:53;6.00;74.60
33988;DHT22;37428;53.580;-1.666;2022-12-29T15:05:00;6.00;73.80
33988;DHT22;37428;53.580;-1.666;2022-12-29T15:08:03;6.00;73.50
33988;DHT22;37428;53.580;-1.666;2022-12-29T15:11:11;6.10;73.20
33988;DHT22;37428;53.580;-1.666;2022-12-29T15:14:31;6.10;74.80
33988;DHT22;37428;53.580;-1.666;2022-12-29T15:17:34;6.10;74.90
33988;DHT22;37428;53.580;-1.666;2022-12-29T15:20:40;6.10;75.10
33988;DHT22;37428;53.580;-1.666;2022-12-29T15:23:45;6.10;75.10
33988;DHT22;37428;53.580;-1.666;2022-12-29T15:26:50;6.10;75.70
33988;DHT22;37428;53.580;-1.666;2022-12-29T15:29:59;6.00;76.40
33988;DHT22;37428;53.580;-1.666;2022-12-29T15:33:08;6.00;76.40
33988;DHT22;37428;53.580;-1.666;2022-12-29T15:36:21;6.00;75.90
33988;DHT22;37428;53.580;-1.666;2022-12-29T15:39:28;6.00;75.20
33988;DHT22;37428;53.580;-1.666;2022-12-29T15:42:51;6.10;75.10
33988;DHT22;37428;53.580;-1.666;2022-12-29T15:45:56;6.10;74.20
33988;DHT22;37428;53.580;-1.666;2022-12-29T15:48:59;6.10;75.00
33988;DHT22;37428;53.580;-1.666;2022-12-29T15:52:06;6.10;75.50
33988;DHT22;37428;53.580;-1.666;2022-12-29T15:55:19;6.10;75.40
33988;DHT22;37428;53.580;-1.666;2022-12-29T15:58:24;6.10;75.60
33988;DHT22;37428;53.580;-1.666;2022-12-29T16:01:30;6.10;75.70
33988;DHT22;37428;53.580;-1.666;2022-12-29T16:04:33;6.10;76.10
33988;DHT22;37428;53.580;-1.666;2022-12-29T16:07:35;6.10;76.20
33988;DHT22;37428;53.580;-1.666;2022-12-29T16:10:40;6.10;76.30
33988;DHT22;37428;53.580;-1.666;2022-12-29T16:13:44;6.10;76.70
33988;DHT22;37428;53.580;-1.666;2022-12-29T16:16:49;6.00;76.00
33988;DHT22;37428;53.580;-1.666;2022-12-29T16:19:54;6.00;76.40
33988;DHT22;37428;53.580;-1.666;2022-12-29T16:22:59;5.90;76.20
33988;DHT22;37428;53.580;-1.666;2022-12-29T16:26:02;5.80;75.80
33988;DHT22;37428;53.580;-1.666;2022-12-29T16:29:11;5.80;76.50
33988;DHT22;37428;53.580;-1.666;2022-12-29T16:32:26;5.70;76.10
33988;DHT22;37428;53.580;-1.666;2022-12-29T16:35:36;5.70;76.00
33988;DHT22;37428;53.580;-1.666;2022-12-29T16:38:40;5.70;76.30
33988;DHT22;37428;53.580;-1.666;2022-12-29T16:41:42;5.60;76.50
33988;DHT22;37428;53.580;-1.666;2022-12-29T16:44:45;5.60;77.10
33988;DHT22;37428;53.580;-1.666;2022-12-29T16:48:09;5.50;77.70
33988;DHT22;37428;53.580;-1.666;2022-12-29T16:51:17;5.50;77.60
33988;DHT22;37428;53.580;-1.666;2022-12-29T16:54:22;5.50;78.10
33988;DHT22;37428;53.580;-1.666;2022-12-29T16:57:27;5.40;78.20
33988;DHT22;37428;53.580;-1.666;2022-12-29T17:00:35;5.50;78.30
33988;DHT22;37428;53.580;-1.666;2022-12-29T17:03:41;5.50;78.30
33988;DHT22;37428;53.580;-1.666;2022-12-29T17:06:44;5.50;78.50
33988;DHT22;37428;53.580;-1.666;2022-12-29T17:09:46;5.40;79.00
33988;DHT22;37428;53.580;-1.666;2022-12-29T17:12:49;5.40;78.90
33988;DHT22;37428;53.580;-1.666;2022-12-29T17:15:51;5.40;78.90
33988;DHT22;37428;53.580;-1.666;2022-12-29T17:18:55;5.40;78.90
33988;DHT22;37428;53.580;-1.666;2022-12-29T17:21:57;5.50;79.00
33988;DHT22;37428;53.580;-1.666;2022-12-29T17:25:00;5.50;78.70
33988;DHT22;37428;53.580;-1.666;2022-12-29T17:28:05;5.50;78.80
33988;DHT22;37428;53.580;-1.666;2022-12-29T17:31:18;5.50;78.30
33988;DHT22;37428;53.580;-1.666;2022-12-29T17:34:21;5.50;78.20
33988;DHT22;37428;53.580;-1.666;2022-12-29T17:37:35;5.40;77.70
33988;DHT22;37428;53.580;-1.666;2022-12-29T17:40:37;5.40;77.90
33988;DHT22;37428;53.580;-1.666;2022-12-29T17:43:39;5.40;78.20
33988;DHT22;37428;53.580;-1.666;2022-12-29T17:46:41;5.40;78.00
33988;DHT22;37428;53.580;-1.666;2022-12-29T17:49:45;5.40;78.30
33988;DHT22;37428;53.580;-1.666;2022-12-29T17:52:51;5.40;78.30
33988;DHT22;37428;53.580;-1.666;2022-12-29T17:55:53;5.30;78.40
33988;DHT22;37428;53.580;-1.666;2022-12-29T17:58:56;5.30;78.70
33988;DHT22;37428;53.580;-1.666;2022-12-29T18:01:58;5.20;78.60
33988;DHT22;37428;53.580;-1.666;2022-12-29T18:05:01;5.20;78.70
33988;DHT22;37428;53.580;-1.666;2022-12-29T18:08:04;5.20;78.90
33988;DHT22;37428;53.580;-1.666;2022-12-29T18:11:19;5.10;79.30
33988;DHT22;37428;53.580;-1.666;2022-12-29T18:14:22;5.10;79.80
33988;DHT22;37428;53.580;-1.666;2022-12-29T18:17:25;5.10;80.00
33988;DHT22;37428;53.580;-1.666;2022-12-29T18:20:29;5.10;80.10
33988;DHT22;37428;53.580;-1.666;2022-12-29T18:23:32;5.00;79.80
33988;DHT22;37428;53.580;-1.666;2022-12-29T18:26:35;5.00;80.00
33988;DHT22;37428;53.580;-1.666;2022-12-29T18:29:37;5.00;80.30
33988;DHT22;37428;53.580;-1.666;2022-12-29T18:32:40;5.00;79.70
33988;DHT22;37428;53.580;-1.666;2022-12-29T18:35:47;5.00;79.80
33988;DHT22;37428;53.580;-1.666;2022-12-29T18:38:50;4.90;80.30
33988;DHT22;37428;53.580;-1.666;2022-12-29T18:41:54;4.90;80.40
33988;DHT22;37428;53.580;-1.666;2022-12-29T18:44:56;4.90;80.50
33988;DHT22;37428;53.580;-1.666;2022-12-29T18:47:58;4.90;80.60
33988;DHT22;37428;53.580;-1.666;2022-12-29T18:51:02;4.90;80.60
33988;DHT22;37428;53.580;-1.666;2022-12-29T18:54:04;4.90;80.70
33988;DHT22;37428;53.580;-1.666;2022-12-29T18:57:06;4.90;80.70
33988;DHT22;37428;53.580;-1.666;2022-12-29T19:00:09;4.90;80.80
33988;DHT22;37428;53.580;-1.666;2022-12-29T19:03:13;4.80;80.30
33988;DHT22;37428;53.580;-1.666;2022-12-29T19:06:18;4.80;80.70
33988;DHT22;37428;53.580;-1.666;2022-12-29T19:09:20;4.80;80.90
33988;DHT22;37428;53.580;-1.666;2022-12-29T19:12:23;4.70;81.20
33988;DHT22;37428;53.580;-1.666;2022-12-29T19:15:26;4.70;81.30
33988;DHT22;37428;53.580;-1.666;2022-12-29T19:18:29;4.70;81.60
33988;DHT22;37428;53.580;-1.666;2022-12-29T19:21:33;4.60;81.80
33988;DHT22;37428;53.580;-1.666;2022-12-29T19:24:36;4.60;81.90
33988;DHT22;37428;53.580;-1.666;2022-12-29T19:27:38;4.60;81.90
33988;DHT22;37428;53.580;-1.666;2022-12-29T19:30:40;4.60;81.90
33988;DHT22;37428;53.580;-1.666;2022-12-29T19:33:42;4.50;82.20
33988;DHT22;37428;53.580;-1.666;2022-12-29T19:36:46;4.50;82.30
33988;DHT22;37428;53.580;-1.666;2022-12-29T19:39:48;4.50;82.50
33988;DHT22;37428;53.580;-1.666;2022-12-29T19:42:51;4.50;82.30